Time;durP1;ratioP1;P1;durP2;ratioP2;P2;SDS_P1;SDS_P2;PMS_P1;PMS_P2;Temp;Humidity;BMP_temperature;BMP_pressure;BME280_temperature;BME280_humidity;BME280_pressure;Samples;Min_cycle;Max_cycle;Signal;HPM_P1;HPM_P2
2023/11/29 00:01:02;;;;;;;4.38;3.25;;;5.30;78.50;;;;;;4954034;29;20059;-76
2023/11/29 00:03:28;;;;;;;4.30;3.20;;;5.30;78.50;;;;;;4954794;28;20106;-75
2023/11/29 00:05:53;;;;;;;5.22;3.95;;;5.30;78.50;;;;;;4955170;28;20464;-76
2023/11/29 00:08:19;;;;;;;5.03;3.88;;;5.30;78.50;;;;;;4957282;29;20488;-77
2023/11/29 00:10:46;;;;;;;4.32;3.40;;;5.30;78.50;;;;;;4925683;29;20472;-76
2023/11/29 00:13:11;;;;;;;3.70;3.28;;;5.30;78.50;;;;;;4958464;28;20110;-76
2023/11/29 00:15:37;;;;;;;4.85;3.47;;;5.30;78.60;;;;;;4941508;29;20190;-76
2023/11/29 00:18:03;;;;;;;4.90;3.70;;;5.30;78.60;;;;;;4941156;29;20046;-76
2023/11/29 00:20:30;;;;;;;4.50;3.58;;;5.30;78.50;;;;;;4941097;29;20066;-76
2023/11/29 02:21:15;;;;;;;4.10;3.47;;;5.00;78.80;;;;;;5107501;23;20033;31
2023/11/29 02:23:51;;;;;;;5.25;3.53;;;5.00;78.80;;;;;;4916526;29;20574;-75
2023/11/29 02:26:17;;;;;;;4.93;3.72;;;5.00;78.80;;;;;;4915361;29;20032;-76
2023/11/29 02:28:43;;;;;;;4.60;3.75;;;5.00;78.80;;;;;;4898414;29;20036;-75
2023/11/29 02:31:08;;;;;;;4.38;3.60;;;5.10;78.90;;;;;;4897708;29;20548;-75
2023/11/29 02:33:34;;;;;;;4.43;3.75;;;5.10;78.80;;;;;;4913741;29;20079;-75
2023/11/29 02:36:00;;;;;;;4.57;3.55;;;5.10;78.80;;;;;;4916703;29;20036;-75
2023/11/29 02:38:26;;;;;;;3.80;3.35;;;5.10;78.80;;;;;;4905228;29;20180;-75
2023/11/29 02:40:52;;;;;;;3.78;3.17;;;5.10;78.80;;;;;;4898752;29;20478;-75
2023/11/29 02:43:17;;;;;;;4.40;3.80;;;5.10;78.80;;;;;;4906449;29;20119;-75
2023/11/29 02:45:43;;;;;;;4.50;3.40;;;5.10;78.80;;;;;;4884102;29;20032;-75
2023/11/29 02:48:09;;;;;;;4.63;3.40;;;5.20;78.80;;;;;;4895902;29;20031;-75
2023/11/29 02:50:34;;;;;;;4.60;3.67;;;5.20;78.80;;;;;;4912516;29;20127;-75
2023/11/29 02:53:00;;;;;;;4.75;3.97;;;5.20;78.80;;;;;;4900410;29;20035;-75
2023/11/29 02:55:26;;;;;;;4.15;3.35;;;5.20;78.80;;;;;;4915451;29;20036;-75
2023/11/29 02:57:51;;;;;;;3.88;3.35;;;5.20;78.80;;;;;;4893292;29;20041;-75
2023/11/29 03:00:18;;;;;;;4.25;3.28;;;5.20;78.80;;;;;;4912909;29;20044;-75
2023/11/29 03:02:44;;;;;;;4.10;3.50;;;5.20;78.80;;;;;;4897051;29;20167;-75
2023/11/29 03:05:10;;;;;;;4.03;3.20;;;5.20;78.80;;;;;;4885890;29;20121;-75
2023/11/29 03:07:35;;;;;;;4.13;3.40;;;5.20;78.80;;;;;;4899140;29;20115;-76
2023/11/29 03:10:02;;;;;;;4.35;3.60;;;5.20;78.80;;;;;;4898032;29;20095;-75
2023/11/29 03:12:28;;;;;;;4.55;3.70;;;5.20;78.80;;;;;;4902005;29;20078;-75
2023/11/29 03:14:54;;;;;;;4.32;3.55;;;5.20;78.70;;;;;;4897813;29;20497;-75
2023/11/29 03:17:20;;;;;;;4.10;3.42;;;5.20;78.70;;;;;;4905464;29;20044;-75
2023/11/29 03:19:46;;;;;;;4.20;3.47;;;5.20;78.80;;;;;;4895144;29;20027;-75
2023/11/29 03:22:12;;;;;;;4.35;3.53;;;5.20;78.70;;;;;;4913067;29;20108;-75
2023/11/29 03:24:38;;;;;;;4.07;3.42;;;5.20;78.70;;;;;;4902930;29;20107;-76
2023/11/29 03:27:03;;;;;;;4.22;3.42;;;5.20;78.70;;;;;;4899841;29;20130;-77
2023/11/29 03:29:29;;;;;;;4.68;3.53;;;5.20;78.70;;;;;;4888187;29;20044;-75
2023/11/29 03:31:55;;;;;;;4.03;3.63;;;5.20;78.70;;;;;;4899628;29;20036;-75
2023/11/29 03:34:21;;;;;;;4.03;3.58;;;5.20;78.70;;;;;;4895709;29;20518;-75
2023/11/29 03:36:46;;;;;;;4.38;3.78;;;5.20;78.80;;;;;;4914513;29;20067;-75
2023/11/29 03:39:12;;;;;;;4.05;3.65;;;5.30;78.80;;;;;;4889191;29;20386;-75
2023/11/29 03:41:38;;;;;;;4.78;4.13;;;5.20;78.70;;;;;;4916404;29;20043;-76
2023/11/29 03:44:04;;;;;;;3.97;3.47;;;5.20;78.70;;;;;;4872500;29;20485;-75
2023/11/29 03:46:29;;;;;;;4.47;3.70;;;5.20;78.80;;;;;;4893996;29;20040;-75
2023/11/29 03:48:55;;;;;;;4.45;3.92;;;5.20;78.80;;;;;;4924690;29;20123;-75
2023/11/29 03:51:21;;;;;;;4.10;3.70;;;5.20;78.80;;;;;;4909965;29;20118;-76
2023/11/29 03:53:47;;;;;;;4.18;3.67;;;5.20;78.70;;;;;;4905388;29;20496;-76
2023/11/29 03:56:12;;;;;;;5.30;4.20;;;5.20;78.70;;;;;;4917458;29;20035;-75
2023/11/29 03:58:38;;;;;;;5.00;3.85;;;5.20;78.70;;;;;;4919810;29;20040;-75
2023/11/29 04:01:04;;;;;;;4.43;4.00;;;5.30;78.80;;;;;;4927203;29;20032;-75
2023/11/29 04:03:30;;;;;;;5.03;4.15;;;5.30;78.80;;;;;;4899359;29;20040;-75
2023/11/29 04:05:55;;;;;;;4.72;3.85;;;5.30;78.80;;;;;;4901918;29;20807;-75
2023/11/29 04:08:21;;;;;;;5.13;4.13;;;5.30;78.80;;;;;;4921609;29;20071;-75
2023/11/29 04:10:47;;;;;;;4.95;4.03;;;5.20;78.70;;;;;;4906012;29;20044;-75
2023/11/29 04:13:13;;;;;;;4.80;3.95;;;5.30;78.80;;;;;;4904024;29;20032;-75
2023/11/29 04:15:39;;;;;;;4.82;4.07;;;5.30;78.70;;;;;;4905027;29;20091;-75
2023/11/29 04:18:05;;;;;;;4.65;4.07;;;5.30;78.70;;;;;;4889753;29;20048;-75
2023/11/29 04:20:30;;;;;;;4.45;3.92;;;5.20;78.70;;;;;;4920509;29;20131;-75
2023/11/29 04:22:58;;;;;;;4.45;3.78;;;5.30;78.70;;;;;;4884849;29;20082;-75
2023/11/29 04:25:23;;;;;;;5.07;4.18;;;5.30;78.70;;;;;;4920596;29;20076;-75
2023/11/29 04:27:49;;;;;;;4.90;4.40;;;5.30;78.80;;;;;;4899139;29;20119;-75
2023/11/29 04:30:15;;;;;;;5.57;4.10;;;5.30;78.80;;;;;;4918926;29;20033;-75
2023/11/29 04:32:41;;;;;;;4.97;3.95;;;5.30;78.80;;;;;;4899645;29;20087;-75
2023/11/29 04:35:08;;;;;;;4.78;4.15;;;5.30;78.70;;;;;;4916330;29;20120;-75
2023/11/29 04:37:33;;;;;;;5.43;4.28;;;5.30;78.80;;;;;;4912824;29;20135;-75
2023/11/29 04:40:00;;;;;;;5.22;4.30;;;5.30;78.80;;;;;;4903741;29;20047;-75
2023/11/29 04:42:25;;;;;;;5.40;4.18;;;5.30;78.80;;;;;;4907452;29;20040;-75
2023/11/29 04:44:51;;;;;;;5.93;4.55;;;5.30;78.80;;;;;;4915295;29;20035;-75
2023/11/29 04:47:18;;;;;;;4.82;4.13;;;5.30;78.80;;;;;;4921599;29;20044;-75
2023/11/29 04:49:44;;;;;;;5.13;4.47;;;5.30;78.70;;;;;;4887174;29;20028;-75
2023/11/29 04:52:09;;;;;;;4.40;3.92;;;5.30;78.70;;;;;;4890430;29;20048;-75
2023/11/29 04:54:35;;;;;;;4.78;4.15;;;5.30;79.40;;;;;;4920838;29;20036;-75
2023/11/29 04:57:01;;;;;;;4.53;3.75;;;5.30;78.80;;;;;;4903971;29;20048;-75
2023/11/29 04:59:26;;;;;;;4.80;3.85;;;5.30;78.70;;;;;;4916591;29;20024;-75
2023/11/29 05:01:52;;;;;;;5.13;4.30;;;5.30;78.80;;;;;;4892734;29;20442;-75
2023/11/29 05:04:18;;;;;;;4.70;4.20;;;5.30;78.70;;;;;;4909064;29;20030;-75
2023/11/29 05:06:44;;;;;;;4.20;3.78;;;5.30;78.70;;;;;;4899346;29;20508;-75
2023/11/29 05:09:14;;;;;;;5.00;4.40;;;5.30;78.80;;;;;;4912436;29;20385;-75
2023/11/29 05:11:43;;;;;;;4.60;3.85;;;5.30;78.70;;;;;;4878762;29;20041;-75
2023/11/29 05:14:08;;;;;;;4.45;3.72;;;5.30;78.70;;;;;;4889274;29;20028;-75
2023/11/29 05:16:34;;;;;;;4.95;3.80;;;5.30;78.70;;;;;;4902575;29;20042;-75
2023/11/29 05:19:00;;;;;;;5.00;3.90;;;5.30;78.80;;;;;;4901214;29;20040;-75
2023/11/29 05:21:27;;;;;;;4.63;3.97;;;5.30;78.70;;;;;;4883974;29;20029;-75
2023/11/29 05:23:53;;;;;;;4.72;4.07;;;5.30;78.80;;;;;;4893814;29;20108;-75
2023/11/29 05:26:18;;;;;;;4.72;4.03;;;5.30;78.70;;;;;;4890653;29;20036;-75
2023/11/29 05:28:44;;;;;;;5.13;3.85;;;5.30;78.80;;;;;;4896383;29;20159;-75
2023/11/29 05:31:10;;;;;;;4.43;3.85;;;5.30;78.80;;;;;;4913831;29;20040;-75
2023/11/29 05:33:36;;;;;;;4.68;3.88;;;5.30;78.70;;;;;;4913850;29;20528;-75
2023/11/29 05:36:02;;;;;;;4.90;4.15;;;5.30;78.80;;;;;;4902178;29;20028;-75
2023/11/29 05:38:28;;;;;;;4.78;4.18;;;5.30;78.70;;;;;;4921325;29;20075;-75
2023/11/29 05:40:53;;;;;;;4.78;3.72;;;5.30;78.70;;;;;;4902514;29;20063;-75
2023/11/29 05:43:19;;;;;;;5.05;3.80;;;5.30;78.70;;;;;;4911484;29;20142;-76
2023/11/29 05:45:45;;;;;;;5.00;4.00;;;5.30;78.70;;;;;;4902327;29;20028;-75
2023/11/29 05:48:10;;;;;;;4.60;3.78;;;5.30;78.70;;;;;;4892916;29;20041;-77
2023/11/29 05:50:36;;;;;;;4.93;4.10;;;5.40;78.80;;;;;;4913168;29;20508;-76
2023/11/29 05:53:02;;;;;;;4.85;4.10;;;5.30;78.70;;;;;;4901203;29;20481;-75
2023/11/29 05:55:28;;;;;;;4.70;4.20;;;5.30;78.70;;;;;;4885894;29;20432;-76
2023/11/29 05:57:54;;;;;;;4.50;3.95;;;5.30;78.70;;;;;;4870529;29;20036;-76
2023/11/29 06:00:21;;;;;;;4.45;3.85;;;5.40;78.80;;;;;;4879113;29;20041;-74
2023/11/29 06:02:47;;;;;;;3.95;3.55;;;5.30;78.80;;;;;;4901929;29;20032;-75
2023/11/29 06:05:13;;;;;;;4.93;4.05;;;5.30;78.70;;;;;;4919640;29;20396;-75
2023/11/29 06:07:38;;;;;;;5.70;4.18;;;5.30;78.70;;;;;;4914096;29;20401;-76
2023/11/29 06:10:06;;;;;;;4.43;3.72;;;5.30;78.70;;;;;;4914553;29;20032;-76
2023/11/29 06:12:33;;;;;;;4.90;4.05;;;5.30;78.70;;;;;;4911328;29;20035;-75
2023/11/29 06:15:04;;;;;;;4.53;3.78;;;5.30;78.70;;;;;;4901344;29;20504;-75
2023/11/29 06:17:35;;;;;;;4.10;3.70;;;5.30;78.70;;;;;;4914850;29;20032;-75
2023/11/29 06:20:04;;;;;;;4.88;3.75;;;5.30;78.70;;;;;;4917975;29;20037;-74
2023/11/29 06:22:32;;;;;;;4.18;3.63;;;5.40;78.80;;;;;;4911256;29;20052;-73
2023/11/29 06:24:59;;;;;;;4.95;3.92;;;5.30;78.70;;;;;;4915666;29;20047;-74
2023/11/29 06:27:28;;;;;;;4.82;4.32;;;5.30;79.40;;;;;;4872980;29;20055;-74
2023/11/29 06:29:54;;;;;;;4.53;3.60;;;5.30;78.70;;;;;;4898596;29;20055;-74
2023/11/29 06:32:22;;;;;;;4.05;3.63;;;5.40;78.80;;;;;;4919658;29;20044;-74
2023/11/29 06:34:48;;;;;;;4.07;3.50;;;5.30;78.70;;;;;;4899028;29;20043;-74
2023/11/29 06:37:14;;;;;;;4.57;3.47;;;5.40;78.80;;;;;;4921697;29;20047;-72
2023/11/29 06:39:40;;;;;;;4.07;3.50;;;5.40;78.80;;;;;;4917670;29;20036;-74
2023/11/29 06:42:06;;;;;;;5.05;3.80;;;5.30;78.70;;;;;;4916949;29;20035;-74
2023/11/29 06:44:31;;;;;;;4.40;3.50;;;5.30;78.70;;;;;;4900007;29;20040;-74
2023/11/29 06:46:58;;;;;;;3.58;3.13;;;5.40;78.80;;;;;;4913917;29;20043;-74
2023/11/29 06:49:26;;;;;;;4.20;3.40;;;5.40;78.80;;;;;;4917127;29;20028;-74
2023/11/29 06:51:52;;;;;;;3.85;3.30;;;5.40;78.80;;;;;;4899543;29;20105;-74
2023/11/29 06:54:18;;;;;;;3.28;2.90;;;5.40;78.70;;;;;;4919459;29;20555;-74
2023/11/29 06:56:44;;;;;;;4.03;3.17;;;5.40;78.80;;;;;;4884593;29;20127;-74
2023/11/29 06:59:11;;;;;;;4.15;3.45;;;5.40;78.80;;;;;;4919733;29;20167;-74
2023/11/29 07:01:37;;;;;;;3.97;3.13;;;5.40;78.80;;;;;;4908401;29;20047;-74
2023/11/29 07:04:03;;;;;;;4.05;3.08;;;5.40;78.80;;;;;;4917544;29;20028;-74
2023/11/29 07:06:29;;;;;;;3.60;2.95;;;5.40;78.80;;;;;;4921577;29;20046;-74
2023/11/29 07:08:54;;;;;;;3.05;2.72;;;5.40;78.80;;;;;;4917681;29;20485;-74
2023/11/29 07:11:20;;;;;;;3.10;2.70;;;5.40;78.80;;;;;;4885971;29;20040;-74
2023/11/29 07:13:46;;;;;;;3.67;3.00;;;5.40;78.80;;;;;;4905205;29;20115;-73
2023/11/29 07:16:12;;;;;;;3.40;2.92;;;5.40;78.80;;;;;;4901052;29;20116;-73
2023/11/29 07:18:38;;;;;;;4.10;3.20;;;5.40;78.80;;;;;;4909269;29;20396;-73
2023/11/29 07:21:04;;;;;;;2.90;2.60;;;5.40;78.80;;;;;;4905799;29;20438;-73
2023/11/29 07:23:30;;;;;;;2.60;2.30;;;5.40;78.80;;;;;;4900891;29;20055;-73
2023/11/29 07:25:56;;;;;;;2.47;2.28;;;5.30;78.70;;;;;;4922164;29;20434;-76
2023/11/29 07:28:22;;;;;;;2.80;2.40;;;5.40;78.80;;;;;;4916507;29;20064;-76
2023/11/29 07:30:49;;;;;;;2.55;2.35;;;5.40;78.80;;;;;;4901202;29;20039;-74
2023/11/29 07:33:15;;;;;;;2.83;2.47;;;5.40;78.80;;;;;;4908518;29;20036;-76
2023/11/29 07:35:41;;;;;;;3.85;2.45;;;5.40;78.80;;;;;;4918423;29;20032;-75
2023/11/29 07:38:07;;;;;;;2.63;2.42;;;5.40;78.80;;;;;;4909702;29;20493;-74
2023/11/29 07:40:33;;;;;;;2.75;2.35;;;5.40;78.80;;;;;;4904653;29;20049;-74
2023/11/29 07:42:58;;;;;;;2.58;2.38;;;5.40;78.80;;;;;;4910725;29;20056;-74
2023/11/29 07:45:24;;;;;;;2.50;2.30;;;5.40;78.80;;;;;;4884897;29;20556;-75
2023/11/29 07:47:50;;;;;;;2.50;2.30;;;5.40;78.80;;;;;;4899318;29;20042;-75
2023/11/29 07:50:16;;;;;;;2.40;2.08;;;5.40;78.80;;;;;;4904640;29;20464;-75
2023/11/29 07:52:41;;;;;;;2.10;1.90;;;5.40;78.80;;;;;;4911643;29;20082;-74
2023/11/29 07:55:08;;;;;;;2.65;2.28;;;5.40;78.80;;;;;;4868519;29;20396;-74
2023/11/29 07:57:34;;;;;;;2.15;1.95;;;5.40;78.80;;;;;;4911850;29;20657;-75
2023/11/29 08:00:06;;;;;;;2.47;2.05;;;5.40;78.80;;;;;;4911924;29;20084;-74
2023/11/29 08:02:38;;;;;;;1.98;1.80;;;5.40;78.80;;;;;;4912908;29;20059;-74
2023/11/29 08:05:04;;;;;;;2.08;1.80;;;5.40;78.80;;;;;;4912256;29;20042;-74
2023/11/29 08:07:32;;;;;;;2.38;2.10;;;5.40;78.80;;;;;;4920272;29;20036;-74
2023/11/29 08:10:01;;;;;;;2.13;1.92;;;5.40;78.80;;;;;;4906265;29;20047;-75
2023/11/29 08:12:27;;;;;;;1.88;1.77;;;5.40;78.80;;;;;;4915005;29;20500;-74
2023/11/29 08:14:53;;;;;;;2.55;2.28;;;5.40;78.80;;;;;;4902741;29;20039;-74
2023/11/29 08:17:19;;;;;;;1.90;1.80;;;5.40;78.80;;;;;;4913933;29;20040;-75
2023/11/29 08:19:45;;;;;;;2.00;1.90;;;5.50;78.90;;;;;;4881134;29;20473;-74
2023/11/29 08:22:11;;;;;;;1.70;1.60;;;5.40;78.80;;;;;;4920300;29;20058;-74
2023/11/29 08:24:37;;;;;;;2.25;2.00;;;5.40;78.80;;;;;;4894654;29;20529;-74
2023/11/29 08:27:03;;;;;;;1.88;1.77;;;5.40;78.80;;;;;;4906514;29;20051;-74
2023/11/29 08:29:29;;;;;;;2.67;2.10;;;5.40;78.80;;;;;;4907309;29;20408;-74
2023/11/29 08:31:55;;;;;;;2.00;1.80;;;5.50;78.80;;;;;;4877796;29;20032;-74
2023/11/29 08:34:20;;;;;;;1.70;1.60;;;5.50;78.80;;;;;;4875806;29;20036;-74
2023/11/29 08:36:46;;;;;;;1.80;1.70;;;5.40;78.80;;;;;;4919620;29;20503;-74
2023/11/29 08:39:12;;;;;;;2.15;1.70;;;5.50;78.80;;;;;;4901355;29;20032;-74
2023/11/29 08:41:38;;;;;;;1.77;1.67;;;5.40;78.80;;;;;;4915086;29;20040;-74
2023/11/29 08:44:04;;;;;;;2.05;1.83;;;5.50;78.80;;;;;;4920222;29;20075;-74
2023/11/29 08:46:29;;;;;;;3.38;1.80;;;5.50;78.80;;;;;;4902697;29;20478;-74
2023/11/29 08:48:55;;;;;;;1.77;1.67;;;5.50;78.80;;;;;;4918155;29;20038;-74
2023/11/29 08:51:21;;;;;;;1.83;1.73;;;5.50;78.90;;;;;;4901862;29;20066;-74
2023/11/29 08:53:47;;;;;;;1.92;1.73;;;5.50;78.80;;;;;;4919276;29;20043;-74
2023/11/29 08:56:18;;;;;;;1.70;1.60;;;5.50;78.80;;;;;;4902297;29;20131;-74
2023/11/29 08:58:44;;;;;;;1.73;1.60;;;5.50;78.80;;;;;;4924396;29;20071;-74
2023/11/29 09:01:18;;;;;;;1.70;1.60;;;5.50;78.80;;;;;;4917106;29;20063;-74
2023/11/29 09:03:44;;;;;;;2.55;1.77;;;5.50;78.90;;;;;;4917955;29;20042;-75
2023/11/29 09:06:10;;;;;;;1.98;1.70;;;5.50;78.80;;;;;;4918879;29;20043;-74
2023/11/29 09:08:36;;;;;;;2.00;1.80;;;5.50;78.80;;;;;;4907273;29;20044;-75
2023/11/29 09:11:02;;;;;;;1.80;1.50;;;5.50;78.80;;;;;;4916514;29;20032;-74
2023/11/29 09:13:29;;;;;;;1.92;1.80;;;5.50;78.80;;;;;;4925855;29;20028;-74
2023/11/29 09:15:55;;;;;;;1.85;1.75;;;5.50;78.90;;;;;;4904794;29;20040;-74
2023/11/29 09:18:22;;;;;;;2.00;1.80;;;5.50;78.80;;;;;;4910438;29;20047;-74
2023/11/29 09:20:48;;;;;;;1.88;1.60;;;5.50;79.40;;;;;;4890204;29;20557;-74
2023/11/29 09:23:13;;;;;;;1.80;1.70;;;5.50;78.80;;;;;;4911171;29;20135;-77
2023/11/29 09:25:39;;;;;;;2.28;1.60;;;5.50;78.80;;;;;;4908499;29;20090;-73
2023/11/29 09:28:08;;;;;;;2.20;2.00;;;5.50;78.80;;;;;;4907117;29;20528;-75
2023/11/29 09:30:34;;;;;;;1.70;1.60;;;5.50;78.80;;;;;;4905932;29;20032;-74
2023/11/29 09:33:00;;;;;;;1.95;1.75;;;5.60;78.90;;;;;;4917352;29;20378;-74
2023/11/29 09:35:25;;;;;;;2.28;2.05;;;5.50;78.80;;;;;;4916874;29;20515;-74
2023/11/29 09:37:51;;;;;;;1.95;1.70;;;5.60;78.90;;;;;;4920449;29;20528;-74
2023/11/29 09:40:17;;;;;;;1.85;1.73;;;5.60;78.80;;;;;;4907392;29;20505;-74
2023/11/29 09:42:44;;;;;;;2.80;1.90;;;5.60;78.80;;;;;;4910342;29;20084;-74
2023/11/29 09:45:20;;;;;;;1.77;1.67;;;5.60;78.80;;;;;;4920975;29;20051;-74
2023/11/29 09:47:46;;;;;;;2.10;1.90;;;5.60;78.80;;;;;;4912426;29;20048;-74
2023/11/29 09:50:12;;;;;;;1.88;1.70;;;5.60;78.80;;;;;;4886185;29;20024;-74
2023/11/29 09:52:38;;;;;;;2.00;1.80;;;5.60;79.50;;;;;;4925051;29;20123;-74
2023/11/29 09:55:04;;;;;;;2.13;1.92;;;5.60;78.90;;;;;;4920227;29;20111;-74
2023/11/29 09:57:30;;;;;;;1.92;1.77;;;5.60;78.90;;;;;;4914074;29;20028;-74
2023/11/29 09:59:56;;;;;;;1.98;1.85;;;5.60;78.80;;;;;;4917305;29;20028;-74
2023/11/29 10:02:22;;;;;;;2.10;1.90;;;5.60;78.80;;;;;;4896484;29;20036;-74
2023/11/29 10:04:48;;;;;;;1.83;1.73;;;5.70;78.90;;;;;;4904285;29;20079;-74
2023/11/29 10:07:14;;;;;;;2.13;1.80;;;5.70;78.90;;;;;;4900586;29;20055;-74
2023/11/29 10:09:40;;;;;;;2.15;1.95;;;5.70;78.90;;;;;;4908020;29;20092;-74
2023/11/29 10:12:07;;;;;;;2.15;1.80;;;5.70;78.90;;;;;;4917312;29;20430;-74
2023/11/29 10:14:37;;;;;;;1.92;1.75;;;5.70;78.90;;;;;;4891683;29;20033;-74
2023/11/29 10:17:03;;;;;;;1.80;1.70;;;5.70;78.90;;;;;;4917461;29;20507;-74
2023/11/29 10:19:31;;;;;;;2.08;1.90;;;5.80;78.90;;;;;;4921598;29;20055;-74
2023/11/29 10:22:00;;;;;;;2.08;1.98;;;5.80;78.90;;;;;;4908656;29;20032;-74
2023/11/29 10:24:26;;;;;;;2.13;1.92;;;5.80;78.90;;;;;;4908738;29;20051;-74
2023/11/29 10:26:53;;;;;;;2.47;2.20;;;5.80;78.90;;;;;;4916496;29;20036;-74
2023/11/29 10:29:19;;;;;;;2.10;1.90;;;5.80;78.90;;;;;;4916441;29;20032;-74
2023/11/29 10:31:46;;;;;;;2.10;1.90;;;5.80;78.90;;;;;;4889182;29;21398;-74
2023/11/29 10:34:14;;;;;;;2.35;1.98;;;5.80;78.90;;;;;;4891811;29;20409;-74
2023/11/29 10:36:41;;;;;;;2.13;1.92;;;5.80;78.90;;;;;;4905070;29;20028;-74
2023/11/29 10:39:21;;;;;;;2.15;1.92;;;5.80;78.90;;;;;;4917629;29;20063;-73
2023/11/29 10:41:56;;;;;;;2.85;1.92;;;5.90;78.90;;;;;;4924086;29;20103;-74
2023/11/29 10:44:30;;;;;;;2.22;1.83;;;5.90;78.90;;;;;;4917171;29;20036;-74
2023/11/29 10:47:15;;;;;;;2.00;1.80;;;5.90;78.90;;;;;;4916081;29;20080;-74
2023/11/29 10:50:05;;;;;;;2.20;2.00;;;5.90;78.90;;;;;;4910533;29;20096;-73
2023/11/29 10:52:31;;;;;;;2.72;2.03;;;5.90;78.90;;;;;;4907911;29;20119;-73
2023/11/29 10:54:56;;;;;;;2.10;1.90;;;5.90;79.50;;;;;;4894553;29;20115;-73
2023/11/29 10:57:46;;;;;;;2.25;2.00;;;5.90;78.90;;;;;;4904288;29;20504;-74
2023/11/29 11:00:15;;;;;;;2.42;2.10;;;6.00;79.00;;;;;;4926500;29;20107;-73
2023/11/29 11:02:47;;;;;;;2.20;1.90;;;6.00;78.90;;;;;;4920467;29;20059;-73
2023/11/29 11:05:17;;;;;;;2.13;1.92;;;6.00;78.90;;;;;;4888096;29;20059;-72
2023/11/29 11:07:45;;;;;;;1.90;1.70;;;6.00;78.90;;;;;;4916406;29;20036;-73
2023/11/29 11:10:16;;;;;;;2.33;1.88;;;6.00;78.90;;;;;;4915841;29;20048;-72
2023/11/29 11:12:42;;;;;;;2.58;1.90;;;6.00;79.00;;;;;;4916945;29;20031;-72
2023/11/29 11:15:20;;;;;;;2.10;1.90;;;6.00;78.90;;;;;;4902352;29;20032;-72
2023/11/29 11:18:01;;;;;;;2.53;2.20;;;6.00;78.90;;;;;;4916950;29;20071;-72
2023/11/29 11:20:51;;;;;;;2.00;1.90;;;6.10;79.00;;;;;;4916157;29;20028;-72
2023/11/29 11:23:18;;;;;;;2.03;1.88;;;6.10;79.00;;;;;;4912340;29;20139;-73
2023/11/29 11:25:43;;;;;;;2.20;2.00;;;6.10;79.00;;;;;;4915249;29;20028;-73
2023/11/29 11:28:31;;;;;;;2.20;1.85;;;6.10;79.00;;;;;;4891829;29;20032;-73
2023/11/29 11:31:01;;;;;;;2.95;2.10;;;6.10;79.00;;;;;;4916998;29;20039;-73
2023/11/29 11:33:50;;;;;;;1.98;1.88;;;6.10;78.90;;;;;;4900916;29;20059;-73
2023/11/29 11:36:20;;;;;;;2.80;1.98;;;6.10;79.00;;;;;;4908099;29;20028;-73
2023/11/29 11:38:46;;;;;;;2.08;1.83;;;6.20;79.00;;;;;;4922318;29;20036;-72
2023/11/29 11:41:12;;;;;;;2.28;1.90;;;6.20;79.00;;;;;;4906388;29;20032;-73
2023/11/29 11:43:38;;;;;;;2.03;1.80;;;6.20;79.00;;;;;;4901353;29;20063;-73
2023/11/29 11:46:05;;;;;;;2.03;1.83;;;6.20;79.00;;;;;;4906462;29;20077;-73
2023/11/29 11:48:31;;;;;;;2.10;1.90;;;6.20;79.00;;;;;;4915337;29;20040;-73
2023/11/29 11:50:57;;;;;;;3.42;1.90;;;6.20;79.00;;;;;;4899471;29;20480;-73
2023/11/29 11:53:23;;;;;;;2.08;1.75;;;6.20;79.00;;;;;;4926602;29;20073;-73
2023/11/29 11:55:51;;;;;;;2.45;1.90;;;6.20;79.00;;;;;;4919018;29;20469;-73
2023/11/29 11:58:18;;;;;;;2.13;1.80;;;6.20;79.00;;;;;;4908114;29;20071;-74
2023/11/29 12:00:45;;;;;;;2.20;2.00;;;6.30;79.00;;;;;;4885997;29;20047;-75
2023/11/29 12:03:11;;;;;;;2.08;1.73;;;6.30;79.00;;;;;;4904290;29;20040;-73
2023/11/29 12:05:38;;;;;;;2.38;1.80;;;6.30;79.00;;;;;;4911334;29;20032;-73
2023/11/29 12:08:05;;;;;;;2.00;1.80;;;6.30;79.00;;;;;;4924813;29;20044;-73
2023/11/29 12:10:31;;;;;;;1.88;1.67;;;6.30;79.00;;;;;;4925526;29;20468;-74
2023/11/29 12:12:57;;;;;;;2.13;1.90;;;6.30;79.00;;;;;;4895146;29;20322;-74
2023/11/29 12:15:23;;;;;;;2.13;1.92;;;6.40;79.00;;;;;;4909790;29;20035;-73
2023/11/29 12:17:48;;;;;;;2.22;1.92;;;6.40;79.00;;;;;;4914466;29;20123;-73
2023/11/29 12:20:15;;;;;;;1.98;1.83;;;6.40;79.00;;;;;;4918897;29;20032;-73
2023/11/29 12:22:45;;;;;;;2.08;1.83;;;6.40;79.00;;;;;;4918656;29;20104;-73
2023/11/29 12:25:13;;;;;;;2.88;2.17;;;6.40;79.00;;;;;;4903472;29;20044;-73
2023/11/29 12:27:40;;;;;;;1.90;1.75;;;6.40;79.00;;;;;;4907738;29;20048;-73
2023/11/29 12:30:11;;;;;;;2.13;1.90;;;6.40;79.00;;;;;;4928449;29;20441;-74
2023/11/29 12:32:38;;;;;;;1.75;1.65;;;6.40;79.00;;;;;;4921140;29;20032;-73
2023/11/29 12:35:06;;;;;;;2.22;2.00;;;6.40;79.00;;;;;;4911820;29;20080;-74
2023/11/29 12:37:33;;;;;;;2.22;1.75;;;6.50;79.00;;;;;;4906518;29;20040;-73
2023/11/29 12:39:59;;;;;;;2.10;1.88;;;6.50;79.00;;;;;;4917888;29;20036;-74
2023/11/29 12:42:25;;;;;;;1.95;1.75;;;6.50;79.00;;;;;;4917902;29;20040;-73
2023/11/29 12:44:51;;;;;;;2.00;1.80;;;6.50;79.00;;;;;;4912196;29;20043;-73
2023/11/29 12:47:23;;;;;;;2.17;1.90;;;6.50;79.00;;;;;;4917155;29;20063;-73
2023/11/29 12:49:49;;;;;;;1.95;1.75;;;6.50;79.10;;;;;;4904094;29;20070;-74
2023/11/29 12:52:15;;;;;;;1.95;1.80;;;6.50;79.00;;;;;;4911855;29;20032;-74
2023/11/29 12:54:41;;;;;;;1.90;1.80;;;6.50;79.00;;;;;;4916826;29;20047;-74
2023/11/29 12:57:06;;;;;;;2.08;1.80;;;6.50;79.00;;;;;;4911597;29;20048;-74
2023/11/29 12:59:32;;;;;;;1.92;1.75;;;6.50;79.00;;;;;;4906171;29;20130;-74
2023/11/29 13:01:58;;;;;;;2.55;1.90;;;6.50;79.10;;;;;;4909157;29;20477;-74
2023/11/29 13:04:24;;;;;;;2.20;1.90;;;6.50;79.00;;;;;;4908853;29;20036;-73
2023/11/29 13:06:49;;;;;;;2.05;1.80;;;6.60;79.10;;;;;;4901852;29;20032;-74
2023/11/29 13:09:15;;;;;;;2.03;1.83;;;6.60;79.10;;;;;;4908591;29;20064;-74
2023/11/29 13:11:41;;;;;;;2.00;1.80;;;6.60;79.10;;;;;;4918259;29;20039;-76
2023/11/29 13:14:07;;;;;;;2.13;1.70;;;6.60;79.10;;;;;;4875469;29;20474;-74
2023/11/29 13:16:33;;;;;;;2.55;1.85;;;6.60;79.10;;;;;;4891436;29;20033;-74
2023/11/29 13:18:59;;;;;;;1.80;1.70;;;6.60;79.10;;;;;;4917926;29;20040;-74
2023/11/29 13:21:25;;;;;;;2.30;2.10;;;6.70;79.20;;;;;;4919154;29;20068;-73
2023/11/29 13:23:52;;;;;;;1.80;1.70;;;6.60;79.10;;;;;;4887075;29;20104;-73
2023/11/29 13:26:18;;;;;;;2.00;1.80;;;6.60;79.10;;;;;;4907964;29;20032;-74
2023/11/29 13:28:44;;;;;;;2.10;1.80;;;6.70;79.10;;;;;;4915224;29;20032;-73
2023/11/29 13:31:10;;;;;;;2.58;1.80;;;6.70;79.10;;;;;;4924861;29;20063;-72
2023/11/29 13:33:36;;;;;;;2.05;1.77;;;6.70;79.10;;;;;;4908392;29;20033;-73
2023/11/29 13:36:02;;;;;;;2.40;1.85;;;6.70;79.10;;;;;;4928717;29;20036;-73
2023/11/29 13:38:28;;;;;;;2.45;1.90;;;6.70;79.10;;;;;;4909487;29;20481;-73
2023/11/29 13:40:54;;;;;;;1.85;1.75;;;6.70;79.10;;;;;;4927066;29;20090;-73
2023/11/29 13:43:19;;;;;;;2.22;2.03;;;6.80;79.10;;;;;;4892539;29;20086;-74
2023/11/29 13:45:45;;;;;;;1.60;1.50;;;6.70;79.00;;;;;;4911769;29;20032;-74
2023/11/29 13:48:11;;;;;;;1.80;1.70;;;6.80;79.10;;;;;;4905842;29;20113;-73
2023/11/29 13:50:37;;;;;;;1.80;1.60;;;6.80;79.10;;;;;;4902738;29;20032;-74
2023/11/29 13:53:02;;;;;;;2.00;1.80;;;6.80;79.10;;;;;;4909884;29;20055;-73
2023/11/29 13:55:28;;;;;;;1.95;1.77;;;6.80;79.00;;;;;;4916849;29;20028;-74
2023/11/29 13:57:54;;;;;;;2.13;1.90;;;6.80;79.00;;;;;;4918486;29;20044;-73
2023/11/29 14:00:21;;;;;;;2.80;1.98;;;6.80;79.00;;;;;;4918905;29;20108;-73
2023/11/29 14:02:47;;;;;;;2.05;1.80;;;6.90;79.10;;;;;;4920374;29;20064;-72
2023/11/29 14:05:13;;;;;;;1.70;1.55;;;6.90;79.10;;;;;;4895758;29;20067;-73
2023/11/29 14:07:39;;;;;;;1.92;1.73;;;6.90;79.00;;;;;;4891970;29;20032;-73
2023/11/29 14:10:05;;;;;;;2.70;1.75;;;6.90;79.00;;;;;;4911779;29;20446;-74
2023/11/29 14:12:31;;;;;;;2.20;2.00;;;6.90;79.00;;;;;;4905172;29;20040;-73
2023/11/29 14:14:56;;;;;;;2.08;1.70;;;6.90;79.00;;;;;;4907916;29;20500;-73
2023/11/29 14:17:22;;;;;;;2.28;1.98;;;7.00;79.00;;;;;;4891748;29;20048;-73
2023/11/29 14:19:48;;;;;;;2.40;2.20;;;6.90;79.00;;;;;;4900409;29;20083;-73
2023/11/29 14:22:14;;;;;;;1.80;1.70;;;7.00;79.00;;;;;;4899889;29;20032;-73
2023/11/29 14:24:41;;;;;;;1.80;1.70;;;7.00;79.10;;;;;;4903838;29;20039;-73
2023/11/29 14:27:07;;;;;;;2.30;1.98;;;7.00;79.00;;;;;;4889385;29;20036;-74
2023/11/29 14:29:33;;;;;;;2.13;1.80;;;6.90;79.00;;;;;;4903045;29;20095;-73
2023/11/29 14:31:58;;;;;;;1.95;1.83;;;7.00;79.00;;;;;;4916300;29;20035;-73
2023/11/29 14:34:24;;;;;;;2.08;1.90;;;7.00;79.00;;;;;;4916666;29;20036;-73
2023/11/29 14:36:53;;;;;;;2.03;1.83;;;7.00;79.00;;;;;;4916292;29;20028;-73
2023/11/29 14:39:21;;;;;;;2.10;1.77;;;7.00;79.00;;;;;;4907603;29;20036;-73
2023/11/29 14:41:47;;;;;;;2.00;1.60;;;6.90;79.50;;;;;;4916355;29;20028;-74
2023/11/29 14:44:13;;;;;;;2.05;1.85;;;7.00;79.60;;;;;;4915934;29;20028;-73
2023/11/29 14:46:39;;;;;;;2.00;1.80;;;7.00;79.00;;;;;;4912171;29;20032;-73
2023/11/29 14:49:05;;;;;;;1.70;1.60;;;7.00;79.00;;;;;;4915320;29;20036;-74
2023/11/29 14:51:31;;;;;;;3.03;1.73;;;7.00;79.00;;;;;;4922789;29;20496;-73
2023/11/29 14:53:57;;;;;;;1.67;1.58;;;7.00;79.60;;;;;;4917587;29;20028;-73